createdAt,value
2018-09-09T00:00:55.902Z,15.83
2018-09-09T00:01:55.895Z,15.78
2018-09-09T00:02:56.186Z,15.79
2018-09-09T00:03:57.099Z,15.8
2018-09-09T00:04:55.888Z,15.8
2018-09-09T00:05:56.245Z,15.79
2018-09-09T00:06:56.053Z,15.78
2018-09-09T00:07:55.855Z,15.78
2018-09-09T00:08:56.070Z,15.77
2018-09-09T00:09:55.998Z,15.79
2018-09-09T00:10:55.855Z,15.79
2018-09-09T00:11:56.194Z,15.8
2018-09-09T00:12:55.990Z,15.79
2018-09-09T00:13:55.991Z,15.8
2018-09-09T00:14:55.924Z,15.82
2018-09-09T00:15:55.952Z,15.84
2018-09-09T00:16:55.828Z,15.81
2018-09-09T00:17:56.081Z,15.79
2018-09-09T00:18:55.849Z,15.79
2018-09-09T00:19:55.887Z,15.8
2018-09-09T00:20:55.884Z,15.79
2018-09-09T00:21:56.121Z,15.76
2018-09-09T00:22:55.899Z,15.79
2018-09-09T00:23:56.068Z,15.79
2018-09-09T00:24:55.864Z,15.78
2018-09-09T00:25:55.989Z,15.81
2018-09-09T00:26:55.847Z,15.81
2018-09-09T00:27:55.887Z,15.81
2018-09-09T00:28:55.858Z,15.79
2018-09-09T00:29:55.871Z,15.78
2018-09-09T00:30:55.856Z,15.78
2018-09-09T00:31:55.857Z,15.78
2018-09-09T00:32:55.854Z,15.8
2018-09-09T00:33:55.822Z,15.79
2018-09-09T00:34:56.167Z,15.76
2018-09-09T00:35:55.816Z,15.75
2018-09-09T00:36:55.896Z,15.73
2018-09-09T00:37:55.832Z,15.71
2018-09-09T00:38:55.910Z,15.71
2018-09-09T00:39:55.911Z,15.7
2018-09-09T00:40:55.825Z,15.68
2018-09-09T00:41:55.854Z,15.66
2018-09-09T00:42:55.872Z,15.65
2018-09-09T00:43:55.842Z,15.64
2018-09-09T00:44:55.875Z,15.66
2018-09-09T00:45:55.819Z,15.65
2018-09-09T00:46:55.884Z,15.66
2018-09-09T00:47:56.310Z,15.64
2018-09-09T00:48:55.841Z,15.65
2018-09-09T00:49:56.145Z,15.66
2018-09-09T00:50:55.944Z,15.67
2018-09-09T00:51:55.813Z,15.68
2018-09-09T00:52:55.846Z,15.66
2018-09-09T00:53:55.884Z,15.65
2018-09-09T00:54:55.869Z,15.64
2018-09-09T00:55:55.861Z,15.67
2018-09-09T00:56:55.944Z,15.66
2018-09-09T00:57:55.816Z,15.66
2018-09-09T00:58:55.834Z,15.66
2018-09-09T00:59:55.958Z,15.62
2018-09-09T01:00:55.842Z,15.64
2018-09-09T01:01:55.814Z,15.61
2018-09-09T01:02:56.025Z,15.61
2018-09-09T01:03:55.887Z,15.6
2018-09-09T01:04:55.895Z,15.59
2018-09-09T01:05:55.985Z,15.59
2018-09-09T01:06:55.834Z,15.57
2018-09-09T01:07:55.942Z,15.56
2018-09-09T01:08:55.837Z,15.55
2018-09-09T01:09:56.271Z,15.54
2018-09-09T01:10:55.830Z,15.53
2018-09-09T01:11:56.357Z,15.53
2018-09-09T01:12:55.871Z,15.54
2018-09-09T01:13:55.899Z,15.52
2018-09-09T01:14:56.288Z,15.53
2018-09-09T01:15:56.404Z,15.52
2018-09-09T01:16:55.897Z,15.5
2018-09-09T01:17:56.421Z,15.51
2018-09-09T01:18:55.993Z,15.49
2018-09-09T01:19:56.110Z,15.48
2018-09-09T01:20:56.257Z,15.47
2018-09-09T01:21:56.359Z,15.46
2018-09-09T01:22:55.890Z,15.46
2018-09-09T01:23:55.914Z,15.48
2018-09-09T01:24:56.005Z,15.46
2018-09-09T01:25:55.837Z,15.45
2018-09-09T01:26:55.861Z,15.47
2018-09-09T01:27:55.810Z,15.45
2018-09-09T01:28:55.846Z,15.47
2018-09-09T01:29:55.955Z,15.48
2018-09-09T01:30:55.819Z,15.47
2018-09-09T01:31:56.035Z,15.48
2018-09-09T01:32:55.844Z,15.44
2018-09-09T01:33:55.809Z,15.46
2018-09-09T01:34:56.202Z,15.42
2018-09-09T01:35:55.828Z,15.44
2018-09-09T01:36:55.875Z,15.46
2018-09-09T01:37:55.845Z,15.46
2018-09-09T01:38:55.798Z,15.46
2018-09-09T01:39:55.907Z,15.47
2018-09-09T01:40:55.903Z,15.48
2018-09-09T01:41:55.834Z,15.48
2018-09-09T01:42:55.996Z,15.47
2018-09-09T01:43:56.396Z,15.48
2018-09-09T01:44:56.189Z,15.48
2018-09-09T01:45:55.800Z,15.48
2018-09-09T01:46:55.890Z,15.47
2018-09-09T01:47:55.817Z,15.48
2018-09-09T01:48:55.813Z,15.48
2018-09-09T01:49:55.982Z,15.48
2018-09-09T01:50:55.821Z,15.48
2018-09-09T01:51:55.944Z,15.48
2018-09-09T01:52:55.882Z,15.48
2018-09-09T01:53:55.833Z,15.48
2018-09-09T01:54:55.845Z,15.48
2018-09-09T01:55:55.823Z,15.47
2018-09-09T01:56:55.940Z,15.46
2018-09-09T01:57:55.905Z,15.43
2018-09-09T01:58:56.177Z,15.43
2018-09-09T01:59:55.823Z,15.42
2018-09-09T02:00:55.812Z,15.42
2018-09-09T02:01:55.871Z,15.42
2018-09-09T02:02:56.117Z,15.42
2018-09-09T02:03:55.840Z,15.41
2018-09-09T02:04:55.887Z,15.4
2018-09-09T02:05:55.901Z,15.41
2018-09-09T02:06:55.882Z,15.4
2018-09-09T02:07:56.194Z,15.42
2018-09-09T02:08:55.885Z,15.39
2018-09-09T02:09:56.117Z,15.38
2018-09-09T02:10:55.950Z,15.4
2018-09-09T02:11:56.164Z,15.39
2018-09-09T02:12:56.006Z,15.39
2018-09-09T02:13:56.003Z,15.38
2018-09-09T02:14:56.014Z,15.36
2018-09-09T02:15:56.448Z,15.37
2018-09-09T02:16:56.054Z,15.37
2018-09-09T02:17:56.244Z,15.35
2018-09-09T02:18:55.886Z,15.35
2018-09-09T02:19:55.875Z,15.33
2018-09-09T02:20:55.832Z,15.34
2018-09-09T02:21:55.799Z,15.32
2018-09-09T02:22:55.842Z,15.31
2018-09-09T02:23:55.944Z,15.31
2018-09-09T02:24:56.282Z,15.31
2018-09-09T02:25:57.601Z,15.31
2018-09-09T02:26:55.946Z,15.28
2018-09-09T02:27:55.801Z,15.28
2018-09-09T02:28:56.279Z,15.26
2018-09-09T02:29:55.873Z,15.26
2018-09-09T02:30:55.979Z,15.27
2018-09-09T02:31:55.855Z,15.26
2018-09-09T02:32:55.788Z,15.25
2018-09-09T02:33:55.815Z,15.25
2018-09-09T02:34:55.814Z,15.23
2018-09-09T02:35:55.830Z,15.21
2018-09-09T02:36:55.823Z,15.23
2018-09-09T02:37:56.263Z,15.19
2018-09-09T02:38:55.946Z,15.19
2018-09-09T02:39:55.867Z,15.16
2018-09-09T02:40:55.890Z,15.12
2018-09-09T02:41:55.834Z,15.09
2018-09-09T02:42:55.859Z,15.06
2018-09-09T02:43:56.196Z,15.06
2018-09-09T02:44:56.185Z,15.06
2018-09-09T02:45:55.873Z,15.04
2018-09-09T02:46:55.860Z,15.04
2018-09-09T02:47:55.885Z,15.03
2018-09-09T02:48:55.783Z,15
2018-09-09T02:49:55.803Z,14.97
2018-09-09T02:50:55.869Z,14.95
2018-09-09T02:51:55.900Z,14.95
2018-09-09T02:52:55.796Z,14.95
2018-09-09T02:53:55.927Z,14.93
2018-09-09T02:54:55.869Z,14.92
2018-09-09T02:55:55.788Z,14.91
2018-09-09T02:56:55.835Z,14.9
2018-09-09T02:57:55.970Z,14.85
2018-09-09T02:58:55.952Z,14.85
2018-09-09T02:59:55.854Z,14.85
2018-09-09T03:00:55.898Z,14.85
2018-09-09T03:01:55.971Z,14.82
2018-09-09T03:02:55.771Z,14.8
2018-09-09T03:03:56.181Z,14.8
2018-09-09T03:04:55.813Z,14.79
2018-09-09T03:05:55.933Z,14.76
2018-09-09T03:06:55.790Z,14.75
2018-09-09T03:07:55.809Z,14.73
2018-09-09T03:08:55.854Z,14.72
2018-09-09T03:09:55.834Z,14.72
2018-09-09T03:10:55.831Z,14.72
2018-09-09T03:11:55.815Z,14.68
2018-09-09T03:12:55.769Z,14.67
2018-09-09T03:13:55.884Z,14.67
2018-09-09T03:14:55.944Z,14.7
2018-09-09T03:15:55.790Z,14.69
2018-09-09T03:16:55.800Z,14.68
2018-09-09T03:17:55.776Z,14.69
2018-09-09T03:18:55.801Z,14.68
2018-09-09T03:19:55.768Z,14.69
2018-09-09T03:20:55.790Z,14.7
2018-09-09T03:21:55.788Z,14.7
2018-09-09T03:22:55.769Z,14.68
2018-09-09T03:23:55.775Z,14.71
2018-09-09T03:24:55.948Z,14.7
2018-09-09T03:25:55.773Z,14.67
2018-09-09T03:26:55.798Z,14.65
2018-09-09T03:27:55.886Z,14.61
2018-09-09T03:28:56.183Z,14.6
2018-09-09T03:29:55.973Z,14.6
2018-09-09T03:30:55.892Z,14.57
2018-09-09T03:31:55.835Z,14.55
2018-09-09T03:32:55.745Z,14.53
2018-09-09T03:33:55.948Z,14.47
2018-09-09T03:34:55.790Z,14.47
2018-09-09T03:35:55.812Z,14.45
2018-09-09T03:36:56.340Z,14.43
2018-09-09T03:37:55.774Z,14.39
2018-09-09T03:38:55.818Z,14.36
2018-09-09T03:39:55.764Z,14.37
2018-09-09T03:40:55.757Z,14.33
2018-09-09T03:41:55.852Z,14.32
2018-09-09T03:42:55.834Z,14.29
2018-09-09T03:43:56.046Z,14.29
2018-09-09T03:44:56.065Z,14.29
2018-09-09T03:45:55.905Z,14.28
2018-09-09T03:46:55.760Z,14.28
2018-09-09T03:47:55.776Z,14.24
2018-09-09T03:48:55.771Z,14.22
2018-09-09T03:49:55.756Z,14.21
2018-09-09T03:50:55.947Z,14.19
2018-09-09T03:51:55.792Z,14.17
2018-09-09T03:52:55.945Z,14.16
2018-09-09T03:53:55.790Z,14.13
2018-09-09T03:54:55.902Z,14.07
2018-09-09T03:55:55.806Z,14.07
2018-09-09T03:56:55.796Z,14.03
2018-09-09T03:57:55.878Z,14.03
2018-09-09T03:58:56.182Z,14.03
2018-09-09T03:59:55.784Z,14
2018-09-09T04:00:55.869Z,13.99
2018-09-09T04:01:55.776Z,13.98
2018-09-09T04:02:55.807Z,13.98
2018-09-09T04:03:56.183Z,13.97
2018-09-09T04:04:56.307Z,13.95
2018-09-09T04:05:55.757Z,13.95
2018-09-09T04:06:55.778Z,13.93
2018-09-09T04:07:55.800Z,13.93
2018-09-09T04:08:55.798Z,13.92
2018-09-09T04:09:56.304Z,13.9
2018-09-09T04:10:55.870Z,13.91
2018-09-09T04:11:55.832Z,13.91
2018-09-09T04:12:55.779Z,13.9
2018-09-09T04:13:55.828Z,13.88
2018-09-09T04:14:55.837Z,13.88
2018-09-09T04:15:55.927Z,13.91
2018-09-09T04:16:55.771Z,13.88
2018-09-09T04:17:55.822Z,13.91
2018-09-09T04:18:55.980Z,13.87
2018-09-09T04:19:55.768Z,13.89
2018-09-09T04:20:55.781Z,13.9
2018-09-09T04:21:55.806Z,13.89
2018-09-09T04:22:55.787Z,13.89
2018-09-09T04:23:55.816Z,13.85
2018-09-09T04:24:56.203Z,13.85
2018-09-09T04:25:55.808Z,13.85
2018-09-09T04:26:55.815Z,13.85
2018-09-09T04:27:55.776Z,13.85
2018-09-09T04:28:55.787Z,13.85
2018-09-09T04:29:55.821Z,13.85
2018-09-09T04:30:56.649Z,13.83
2018-09-09T04:31:55.820Z,13.84
2018-09-09T04:32:55.807Z,13.84
2018-09-09T04:33:55.883Z,13.84
2018-09-09T04:34:56.381Z,13.84
2018-09-09T04:35:55.795Z,13.84
2018-09-09T04:36:55.837Z,13.84
2018-09-09T04:37:55.819Z,13.83
2018-09-09T04:38:55.781Z,13.84
2018-09-09T04:39:55.865Z,13.81
2018-09-09T04:40:55.767Z,13.83
2018-09-09T04:41:55.815Z,13.79
2018-09-09T04:42:55.778Z,13.78
2018-09-09T04:43:55.840Z,13.78
2018-09-09T04:44:55.782Z,13.81
2018-09-09T04:45:55.817Z,13.82
2018-09-09T04:46:55.877Z,13.8
2018-09-09T04:47:55.795Z,13.8
2018-09-09T04:48:55.846Z,13.8
2018-09-09T04:49:55.813Z,13.79
2018-09-09T04:50:55.863Z,13.78
2018-09-09T04:51:55.791Z,13.77
2018-09-09T04:52:56.139Z,13.77
2018-09-09T04:53:55.821Z,13.75
2018-09-09T04:54:55.797Z,13.72
2018-09-09T04:55:55.810Z,13.75
2018-09-09T04:56:55.917Z,13.74
2018-09-09T04:57:55.784Z,13.76
2018-09-09T04:58:56.272Z,13.74
2018-09-09T04:59:55.848Z,13.76
2018-09-09T05:00:55.992Z,13.73
2018-09-09T05:01:55.892Z,13.73
2018-09-09T05:02:55.787Z,13.71
2018-09-09T05:03:55.789Z,13.72
2018-09-09T05:04:55.833Z,13.7
2018-09-09T05:05:56.087Z,13.68
2018-09-09T05:06:55.817Z,13.66
2018-09-09T05:07:55.827Z,13.66
2018-09-09T05:08:56.007Z,13.66
2018-09-09T05:09:56.329Z,13.65
2018-09-09T05:10:55.838Z,13.62
2018-09-09T05:11:55.845Z,13.6
2018-09-09T05:12:55.903Z,13.62
2018-09-09T05:13:56.037Z,13.59
2018-09-09T05:14:55.835Z,13.59
2018-09-09T05:15:56.212Z,13.6
2018-09-09T05:16:55.820Z,13.6
2018-09-09T05:17:55.805Z,13.62
2018-09-09T05:18:55.818Z,13.6
2018-09-09T05:19:55.861Z,13.6
2018-09-09T05:20:55.826Z,13.61
2018-09-09T05:21:55.911Z,13.64
2018-09-09T05:22:56.297Z,13.62
2018-09-09T05:23:55.839Z,13.62
2018-09-09T05:24:56.104Z,13.64
2018-09-09T05:25:55.934Z,13.63
2018-09-09T05:26:55.842Z,13.66
2018-09-09T05:27:55.825Z,13.66
2018-09-09T05:28:55.840Z,13.67
2018-09-09T05:29:55.801Z,13.68
2018-09-09T05:30:55.886Z,13.7
2018-09-09T05:31:55.804Z,13.71
2018-09-09T05:32:56.167Z,13.7
2018-09-09T05:33:55.867Z,13.7
2018-09-09T05:34:55.806Z,13.7
2018-09-09T05:35:55.929Z,13.7
2018-09-09T05:36:55.872Z,13.7
2018-09-09T05:37:55.925Z,13.68
2018-09-09T05:38:55.996Z,13.69
2018-09-09T05:39:56.555Z,13.7
2018-09-09T05:40:55.841Z,13.7
2018-09-09T05:41:55.986Z,13.7
2018-09-09T05:42:55.912Z,13.67
2018-09-09T05:43:56.097Z,13.68
2018-09-09T05:44:55.827Z,13.66
2018-09-09T05:45:55.851Z,13.65
2018-09-09T05:46:56.126Z,13.66
2018-09-09T05:47:55.899Z,13.67
2018-09-09T05:48:55.818Z,13.67
2018-09-09T05:49:55.990Z,13.68
2018-09-09T05:50:55.855Z,13.71
2018-09-09T05:51:56.232Z,13.72
2018-09-09T05:52:55.913Z,13.74
2018-09-09T05:53:56.685Z,13.77
2018-09-09T05:54:55.856Z,13.76
2018-09-09T05:55:56.265Z,13.79
2018-09-09T05:56:55.831Z,13.79
2018-09-09T05:57:55.830Z,13.79
2018-09-09T05:58:55.856Z,13.78
2018-09-09T05:59:55.822Z,13.82
2018-09-09T06:00:55.858Z,13.83
2018-09-09T06:01:55.847Z,13.84
2018-09-09T06:02:55.828Z,13.85
2018-09-09T06:03:55.826Z,13.86
2018-09-09T06:04:55.842Z,13.87
2018-09-09T06:05:55.916Z,13.89
2018-09-09T06:06:55.816Z,13.9
2018-09-09T06:07:56.461Z,13.91
2018-09-09T06:08:55.842Z,13.94
2018-09-09T06:09:55.818Z,13.93
2018-09-09T06:10:55.826Z,13.93
2018-09-09T06:11:55.914Z,13.94
2018-09-09T06:12:55.941Z,13.98
2018-09-09T06:13:55.885Z,13.97
2018-09-09T06:14:56.200Z,13.98
2018-09-09T06:15:55.941Z,13.98
2018-09-09T06:16:55.913Z,13.99
2018-09-09T06:17:55.858Z,14.02
2018-09-09T06:18:55.880Z,14.02
2018-09-09T06:19:55.918Z,14.04
2018-09-09T06:20:55.956Z,14.07
2018-09-09T06:21:55.873Z,14.04
2018-09-09T06:22:56.586Z,14.06
2018-09-09T06:23:55.837Z,14.04
2018-09-09T06:24:56.158Z,14.05
2018-09-09T06:25:55.859Z,14.07
2018-09-09T06:26:55.848Z,14.05
2018-09-09T06:27:55.863Z,14.06
2018-09-09T06:28:56.367Z,14.08
2018-09-09T06:29:55.878Z,14.09
2018-09-09T06:30:55.857Z,14.09
2018-09-09T06:31:56.091Z,14.13
2018-09-09T06:32:55.890Z,14.13
2018-09-09T06:33:57.581Z,14.15
2018-09-09T06:34:59.327Z,14.16
2018-09-09T06:35:55.854Z,14.18
2018-09-09T06:36:56.271Z,14.21
2018-09-09T06:37:55.856Z,14.24
2018-09-09T06:38:56.311Z,14.3
2018-09-09T06:39:55.861Z,14.33
2018-09-09T06:40:56.073Z,14.39
2018-09-09T06:41:55.939Z,14.42
2018-09-09T06:42:55.964Z,14.46
2018-09-09T06:43:55.847Z,14.51
2018-09-09T06:44:55.854Z,14.56
2018-09-09T06:45:55.908Z,14.58
2018-09-09T06:46:56.273Z,14.63
2018-09-09T06:47:55.929Z,14.69
2018-09-09T06:48:55.876Z,14.69
2018-09-09T06:49:55.872Z,14.74
2018-09-09T06:50:55.878Z,14.75
2018-09-09T06:51:55.924Z,14.77
2018-09-09T06:52:55.893Z,14.82
2018-09-09T06:53:55.980Z,14.87
2018-09-09T06:54:56.308Z,14.89
2018-09-09T06:55:55.874Z,14.93
2018-09-09T06:56:55.907Z,14.96
2018-09-09T06:57:55.894Z,15.01
2018-09-09T06:58:56.304Z,15.05
2018-09-09T06:59:56.174Z,15.1
2018-09-09T07:00:55.899Z,15.12
2018-09-09T07:01:56.309Z,15.16
2018-09-09T07:02:55.891Z,15.22
2018-09-09T07:03:56.541Z,15.26
2018-09-09T07:04:56.115Z,15.3
2018-09-09T07:05:55.880Z,15.34
2018-09-09T07:06:55.900Z,15.37
2018-09-09T07:07:56.084Z,15.41
2018-09-09T07:08:55.876Z,15.44
2018-09-09T07:09:56.120Z,15.44
2018-09-09T07:10:58.190Z,15.46
2018-09-09T07:11:58.631Z,15.49
2018-09-09T07:12:55.942Z,15.56
2018-09-09T07:13:56.226Z,15.58
2018-09-09T07:14:55.871Z,15.63
2018-09-09T07:15:55.926Z,15.67
2018-09-09T07:16:56.140Z,15.68
2018-09-09T07:17:55.875Z,15.7
2018-09-09T07:18:56.121Z,15.73
2018-09-09T07:19:55.878Z,15.76
2018-09-09T07:20:55.885Z,15.79
2018-09-09T07:21:55.882Z,15.8
2018-09-09T07:22:55.888Z,15.82
2018-09-09T07:23:55.852Z,15.86
2018-09-09T07:24:55.920Z,15.89
2018-09-09T07:25:55.900Z,15.92
2018-09-09T07:26:57.457Z,15.92
2018-09-09T07:27:55.894Z,15.92
2018-09-09T07:28:55.971Z,15.94
2018-09-09T07:29:55.872Z,15.98
2018-09-09T07:30:55.933Z,16
2018-09-09T07:31:55.905Z,16.05
2018-09-09T07:32:55.979Z,16.09
2018-09-09T07:33:56.294Z,16.13
2018-09-09T07:34:56.158Z,16.18
2018-09-09T07:35:55.935Z,16.23
2018-09-09T07:36:55.913Z,16.24
2018-09-09T07:37:56.098Z,16.28
2018-09-09T07:38:55.930Z,16.27
2018-09-09T07:39:55.952Z,16.32
2018-09-09T07:40:55.880Z,16.36
2018-09-09T07:41:56.484Z,16.37
2018-09-09T07:42:55.967Z,16.42
2018-09-09T07:43:56.254Z,16.47
2018-09-09T07:44:56.049Z,16.47
2018-09-09T07:45:55.977Z,16.48
2018-09-09T07:46:56.125Z,16.51
2018-09-09T07:47:56.136Z,16.56
2018-09-09T07:48:55.972Z,16.57
2018-09-09T07:49:55.951Z,16.64
2018-09-09T07:50:56.300Z,16.67
2018-09-09T07:51:55.949Z,16.71
2018-09-09T07:52:55.907Z,16.77
2018-09-09T07:53:56.631Z,16.82
2018-09-09T07:54:56.041Z,16.87
2018-09-09T07:55:55.963Z,16.91
2018-09-09T07:56:55.894Z,16.95
2018-09-09T07:57:56.391Z,17
2018-09-09T07:58:55.967Z,17.06
2018-09-09T07:59:55.882Z,17.08
2018-09-09T08:00:56.022Z,17.1
2018-09-09T08:01:55.925Z,17.15
2018-09-09T08:02:55.938Z,17.18
2018-09-09T08:03:55.970Z,17.21
2018-09-09T08:04:55.896Z,17.2
2018-09-09T08:05:56.016Z,17.24
2018-09-09T08:06:55.989Z,17.27
2018-09-09T08:07:55.930Z,17.29
2018-09-09T08:08:55.905Z,17.32
2018-09-09T08:09:55.961Z,17.33
2018-09-09T08:10:56.076Z,17.32
2018-09-09T08:11:56.362Z,17.29
2018-09-09T08:12:55.952Z,17.29
2018-09-09T08:13:55.973Z,17.31
2018-09-09T08:14:55.920Z,17.31
2018-09-09T08:15:55.897Z,17.32
2018-09-09T08:16:55.907Z,17.35
2018-09-09T08:17:55.900Z,17.37
2018-09-09T08:18:56.306Z,17.42
2018-09-09T08:19:56.560Z,17.43
2018-09-09T08:20:55.905Z,17.44
2018-09-09T08:21:56.334Z,17.49
2018-09-09T08:22:55.956Z,17.49
2018-09-09T08:23:55.927Z,17.49
2018-09-09T08:24:56.192Z,17.48
2018-09-09T08:25:56.132Z,17.49
2018-09-09T08:26:56.116Z,17.5
2018-09-09T08:27:55.947Z,17.53
2018-09-09T08:28:56.160Z,17.55
2018-09-09T08:29:56.061Z,17.58
2018-09-09T08:30:55.947Z,17.59
2018-09-09T08:31:56.357Z,17.64
2018-09-09T08:32:55.949Z,17.68
2018-09-09T08:33:55.907Z,17.7
2018-09-09T08:34:56.905Z,17.75
2018-09-09T08:35:55.894Z,17.75
2018-09-09T08:36:56.041Z,17.76
2018-09-09T08:37:56.158Z,17.77
2018-09-09T08:38:55.914Z,17.77
2018-09-09T08:39:55.921Z,17.8
2018-09-09T08:40:55.970Z,17.82
2018-09-09T08:41:55.897Z,17.82
2018-09-09T08:42:56.108Z,17.82
2018-09-09T08:43:55.902Z,17.83
2018-09-09T08:44:55.950Z,17.82
2018-09-09T08:45:55.917Z,17.84
2018-09-09T08:46:55.922Z,17.86
2018-09-09T08:47:55.953Z,17.88
2018-09-09T08:48:55.922Z,17.88
2018-09-09T08:49:55.937Z,17.89
2018-09-09T08:50:55.960Z,17.89
2018-09-09T08:51:56.924Z,17.89
2018-09-09T08:52:55.994Z,17.9
2018-09-09T08:53:56.009Z,17.92
2018-09-09T08:54:55.922Z,17.94
2018-09-09T08:55:56.154Z,17.95
2018-09-09T08:56:56.021Z,17.94
2018-09-09T08:57:55.979Z,17.95
2018-09-09T08:58:55.931Z,17.95
2018-09-09T08:59:55.909Z,17.94
2018-09-09T09:00:55.975Z,17.95
2018-09-09T09:01:55.915Z,17.94
2018-09-09T09:02:55.943Z,17.95
2018-09-09T09:04:03.197Z,17.96
2018-09-09T09:04:56.137Z,17.99
2018-09-09T09:05:56.156Z,18.01
2018-09-09T09:06:56.197Z,18.02
2018-09-09T09:07:57.419Z,18.04
2018-09-09T09:08:56.734Z,18.05
2018-09-09T09:09:55.961Z,18.09
2018-09-09T09:10:55.996Z,18.09
2018-09-09T09:11:56.012Z,18.11
2018-09-09T09:12:56.108Z,18.11
2018-09-09T09:13:56.425Z,18.14
2018-09-09T09:14:56.001Z,18.12
2018-09-09T09:15:56.227Z,18.15
2018-09-09T09:16:56.206Z,18.16
2018-09-09T09:17:55.925Z,18.16
2018-09-09T09:18:55.966Z,18.19
2018-09-09T09:19:56.168Z,18.23
2018-09-09T09:20:56.492Z,18.26
2018-09-09T09:21:56.015Z,18.26
2018-09-09T09:22:56.141Z,18.27
2018-09-09T09:23:56.104Z,18.27
2018-09-09T09:24:56.061Z,18.28
2018-09-09T09:25:56.091Z,18.32
2018-09-09T09:26:56.374Z,18.35
2018-09-09T09:27:56.020Z,18.39
2018-09-09T09:28:55.956Z,18.38
2018-09-09T09:29:56.043Z,18.41
2018-09-09T09:30:55.997Z,18.42
2018-09-09T09:31:56.189Z,18.41
2018-09-09T09:32:55.927Z,18.39
2018-09-09T09:33:56.163Z,18.44
2018-09-09T09:34:56.147Z,18.46
2018-09-09T09:35:55.941Z,18.49
2018-09-09T09:36:56.022Z,18.52
2018-09-09T09:37:56.004Z,18.55
2018-09-09T09:38:56.353Z,18.58
2018-09-09T09:39:56.009Z,18.58
2018-09-09T09:40:56.216Z,18.66
2018-09-09T09:41:56.528Z,18.64
2018-09-09T09:42:56.163Z,18.64
2018-09-09T09:43:55.977Z,18.65
2018-09-09T09:44:56.315Z,18.69
2018-09-09T09:45:56.027Z,18.71
2018-09-09T09:46:56.226Z,18.77
2018-09-09T09:47:55.979Z,18.84
2018-09-09T09:48:55.935Z,18.9
2018-09-09T09:49:56.179Z,18.86
2018-09-09T09:50:55.929Z,18.83
2018-09-09T09:51:55.972Z,18.83
2018-09-09T09:52:56.122Z,18.86
2018-09-09T09:53:56.176Z,18.93
2018-09-09T09:54:56.280Z,19.03
2018-09-09T09:55:55.983Z,19.09
2018-09-09T09:56:56.115Z,19.18
2018-09-09T09:57:56.209Z,19.24
2018-09-09T09:58:55.963Z,19.3
2018-09-09T09:59:56.002Z,19.38
2018-09-09T10:00:55.975Z,19.4
2018-09-09T10:01:56.139Z,19.45
2018-09-09T10:02:56.241Z,19.44
2018-09-09T10:03:55.963Z,19.42
2018-09-09T10:04:56.283Z,19.44
2018-09-09T10:05:56.015Z,19.46
2018-09-09T10:06:55.942Z,19.42
2018-09-09T10:07:55.963Z,19.44
2018-09-09T10:08:56.448Z,19.48
2018-09-09T10:09:55.979Z,19.54
2018-09-09T10:10:56.076Z,19.63
2018-09-09T10:11:56.042Z,19.69
2018-09-09T10:12:56.034Z,19.74
2018-09-09T10:13:56.097Z,19.79
2018-09-09T10:14:56.049Z,19.83
2018-09-09T10:15:56.066Z,19.86
2018-09-09T10:16:55.977Z,19.9
2018-09-09T10:17:55.963Z,19.98
2018-09-09T10:18:56.439Z,20.05
2018-09-09T10:19:56.005Z,20.1
2018-09-09T10:20:56.027Z,20.14
2018-09-09T10:21:55.961Z,20.23
2018-09-09T10:22:55.977Z,20.29
2018-09-09T10:23:57.094Z,20.34
2018-09-09T10:24:56.060Z,20.39
2018-09-09T10:25:56.016Z,20.43
2018-09-09T10:26:56.804Z,20.54
2018-09-09T10:27:56.820Z,20.58
2018-09-09T10:28:56.039Z,20.64
2018-09-09T10:29:57.590Z,20.68
2018-09-09T10:30:56.922Z,20.74
2018-09-09T10:31:56.029Z,20.81
2018-09-09T10:32:56.833Z,20.86
2018-09-09T10:33:56.858Z,20.89
2018-09-09T10:34:56.976Z,20.93
2018-09-09T10:35:57.030Z,20.95
2018-09-09T10:36:55.991Z,20.93
2018-09-09T10:37:56.786Z,20.94
2018-09-09T10:38:57.637Z,20.98
2018-09-09T10:39:56.010Z,20.99
2018-09-09T10:40:57.527Z,20.98
2018-09-09T10:41:57.231Z,20.99
2018-09-09T10:42:56.061Z,21.05
2018-09-09T10:43:57.301Z,21.07
2018-09-09T10:44:56.779Z,21.09
2018-09-09T10:45:56.966Z,21.14
2018-09-09T10:46:57.932Z,21.22
2018-09-09T10:47:56.949Z,21.33
2018-09-09T10:48:56.936Z,21.38
2018-09-09T10:49:56.946Z,21.37
2018-09-09T10:50:56.937Z,21.31
2018-09-09T10:51:56.116Z,21.32
2018-09-09T10:52:56.851Z,21.34
2018-09-09T10:53:56.762Z,21.35
2018-09-09T10:54:57.704Z,21.39
2018-09-09T10:55:56.011Z,21.46
2018-09-09T10:56:56.837Z,21.5
2018-09-09T10:57:56.902Z,21.53
2018-09-09T10:58:57.393Z,21.51
2018-09-09T10:59:56.798Z,21.52
2018-09-09T11:00:56.904Z,21.51
2018-09-09T11:01:56.861Z,21.6
2018-09-09T11:02:57.201Z,21.65
2018-09-09T11:03:56.147Z,21.69
2018-09-09T11:04:56.954Z,21.74
2018-09-09T11:05:56.156Z,21.77
2018-09-09T11:06:57.821Z,21.78
2018-09-09T11:07:56.617Z,21.8
2018-09-09T11:08:56.152Z,21.76
2018-09-09T11:09:56.033Z,21.71
2018-09-09T11:10:56.054Z,21.71
2018-09-09T11:11:56.782Z,21.72
2018-09-09T11:12:58.576Z,21.74
2018-09-09T11:13:56.074Z,21.77
2018-09-09T11:14:56.070Z,21.83
2018-09-09T11:15:56.971Z,21.88
2018-09-09T11:16:56.962Z,21.94
2018-09-09T11:17:56.916Z,22.02
2018-09-09T11:18:57.310Z,22.05
2018-09-09T11:19:57.430Z,22.09
2018-09-09T11:20:56.814Z,22.14
2018-09-09T11:21:56.043Z,22.19
2018-09-09T11:22:56.992Z,22.3
2018-09-09T11:23:56.867Z,22.27
2018-09-09T11:24:56.241Z,22.34
2018-09-09T11:25:57.317Z,22.4
2018-09-09T11:26:56.232Z,22.44
2018-09-09T11:27:56.093Z,22.49
2018-09-09T11:28:56.104Z,22.44
2018-09-09T11:29:57.588Z,22.44
2018-09-09T11:30:58.123Z,22.44
2018-09-09T11:31:56.108Z,22.4
2018-09-09T11:32:56.018Z,22.41
2018-09-09T11:33:56.042Z,22.46
2018-09-09T11:34:56.208Z,22.47
2018-09-09T11:35:56.182Z,22.53
2018-09-09T11:36:56.112Z,22.56
2018-09-09T11:37:56.029Z,22.62
2018-09-09T11:38:56.214Z,22.67
2018-09-09T11:39:56.063Z,22.75
2018-09-09T11:40:56.207Z,22.8
2018-09-09T11:41:56.149Z,22.85
2018-09-09T11:42:56.092Z,22.89
2018-09-09T11:43:56.175Z,22.93
2018-09-09T11:44:56.410Z,23.03
2018-09-09T11:45:56.078Z,23.08
2018-09-09T11:46:56.278Z,23.19
2018-09-09T11:47:56.071Z,23.21
2018-09-09T11:48:56.107Z,23.21
2018-09-09T11:49:56.319Z,23.3
2018-09-09T11:50:56.141Z,23.32
2018-09-09T11:51:56.131Z,23.35
2018-09-09T11:52:56.060Z,23.41
2018-09-09T11:53:56.147Z,23.44
2018-09-09T11:54:56.281Z,23.48
2018-09-09T11:55:57.254Z,23.49
2018-09-09T11:56:57.454Z,23.54
2018-09-09T11:57:56.190Z,23.56
2018-09-09T11:58:57.160Z,23.6
2018-09-09T11:59:56.068Z,23.59
2018-09-09T12:00:56.182Z,23.52
2018-09-09T12:01:56.382Z,23.51
2018-09-09T12:02:56.328Z,23.52
2018-09-09T12:03:56.313Z,23.65
2018-09-09T12:04:56.346Z,23.64
2018-09-09T12:05:56.270Z,23.65
2018-09-09T12:06:56.253Z,23.6
2018-09-09T12:07:56.197Z,23.62
2018-09-09T12:08:56.142Z,23.62
2018-09-09T12:09:56.146Z,23.67
2018-09-09T12:10:56.250Z,23.73
2018-09-09T12:11:56.287Z,23.79
2018-09-09T12:12:56.464Z,23.93
2018-09-09T12:13:56.318Z,24.06
2018-09-09T12:14:56.273Z,24.07
2018-09-09T12:15:56.392Z,24.09
2018-09-09T12:16:56.200Z,24.1
2018-09-09T12:17:56.387Z,24.09
2018-09-09T12:18:57.156Z,24.1
2018-09-09T12:19:57.763Z,24.07
2018-09-09T12:20:56.169Z,24.13
2018-09-09T12:21:56.055Z,24.17
2018-09-09T12:22:57.184Z,24.18
2018-09-09T12:23:57.177Z,24.25
2018-09-09T12:24:56.278Z,24.23
2018-09-09T12:25:56.115Z,24.28
2018-09-09T12:26:56.256Z,24.3
2018-09-09T12:27:56.297Z,24.36
2018-09-09T12:28:56.351Z,24.4
2018-09-09T12:29:56.245Z,24.34
2018-09-09T12:30:56.298Z,24.35
2018-09-09T12:31:56.074Z,24.36
2018-09-09T12:32:56.203Z,24.4
2018-09-09T12:33:56.094Z,24.42
2018-09-09T12:34:56.718Z,24.39
2018-09-09T12:35:56.807Z,24.41
2018-09-09T12:36:56.321Z,24.43
2018-09-09T12:37:56.105Z,24.48
2018-09-09T12:38:56.316Z,24.5
2018-09-09T12:39:56.317Z,24.55
2018-09-09T12:40:56.127Z,24.62
2018-09-09T12:41:56.515Z,24.77
2018-09-09T12:42:56.157Z,24.78
2018-09-09T12:43:56.174Z,24.77
2018-09-09T12:44:56.210Z,24.73
2018-09-09T12:45:56.269Z,24.71
2018-09-09T12:46:56.291Z,24.76
2018-09-09T12:47:56.212Z,24.82
2018-09-09T12:48:56.363Z,24.84
2018-09-09T12:49:56.317Z,24.9
2018-09-09T12:50:58.055Z,24.97
2018-09-09T12:51:56.242Z,24.81
2018-09-09T12:52:56.178Z,24.8
2018-09-09T12:53:56.141Z,24.83
2018-09-09T12:54:56.176Z,24.91
2018-09-09T12:55:56.180Z,24.94